createdAt,value
2018-09-21T00:04:10.814Z,76.60
2018-09-21T00:09:40.236Z,76.80
2018-09-21T00:15:09.611Z,76.90
2018-09-21T00:20:38.949Z,77.00
2018-09-21T00:26:08.720Z,77.10
2018-09-21T00:31:37.983Z,77.20
2018-09-21T00:37:07.598Z,77.30
2018-09-21T00:42:38.002Z,77.30
2018-09-21T00:48:07.387Z,77.30
2018-09-21T00:53:37.408Z,77.40
2018-09-21T00:59:07.580Z,77.50
2018-09-21T01:04:44.610Z,77.50
2018-09-21T01:10:14.035Z,77.60
2018-09-21T01:15:43.469Z,77.70
2018-09-21T01:21:12.891Z,77.70
2018-09-21T01:26:42.289Z,77.70
2018-09-21T01:32:11.772Z,77.70
2018-09-21T01:37:41.232Z,77.90
2018-09-21T01:43:10.616Z,77.80
2018-09-21T01:48:40.039Z,77.70
2018-09-21T01:54:09.380Z,78.00
2018-09-21T01:59:38.844Z,78.00
2018-09-21T02:05:08.251Z,77.90
2018-09-21T02:10:37.479Z,78.00
2018-09-21T02:16:06.780Z,77.90
2018-09-21T02:21:36.019Z,78.00
2018-09-21T02:27:05.440Z,78.00
2018-09-21T02:32:34.657Z,77.80
2018-09-21T02:38:03.975Z,78.10
2018-09-21T02:43:33.296Z,78.00
2018-09-21T02:49:02.977Z,78.20
2018-09-21T02:54:32.204Z,78.20
2018-09-21T03:00:01.544Z,78.30
2018-09-21T03:05:30.935Z,77.70
2018-09-21T03:11:00.401Z,78.30
2018-09-21T03:16:29.650Z,78.60
2018-09-21T03:21:59.447Z,78.60
2018-09-21T03:27:28.666Z,78.70
2018-09-21T03:32:57.900Z,78.70
2018-09-21T03:38:27.300Z,78.80
2018-09-21T03:43:56.615Z,78.90
2018-09-21T03:49:25.832Z,78.90
2018-09-21T03:54:55.052Z,79.10
2018-09-21T04:00:24.340Z,79.20
2018-09-21T04:05:53.616Z,79.10
2018-09-21T04:11:22.826Z,79.20
2018-09-21T04:16:52.032Z,79.30
2018-09-21T04:22:21.345Z,79.30
2018-09-21T04:27:50.817Z,79.50
2018-09-21T04:33:20.144Z,79.60
2018-09-21T04:38:49.680Z,79.60
2018-09-21T04:44:23.249Z,79.60
2018-09-21T04:49:52.533Z,79.70
2018-09-21T04:55:21.861Z,79.60
2018-09-21T05:00:51.201Z,79.50
2018-09-21T05:06:20.931Z,79.70
2018-09-21T05:11:50.286Z,79.50
2018-09-21T05:17:19.628Z,79.50
2018-09-21T05:22:48.871Z,79.60
2018-09-21T05:28:18.286Z,79.70
2018-09-21T05:33:47.724Z,79.30
2018-09-21T05:39:17.204Z,79.20
2018-09-21T05:44:46.518Z,79.20
2018-09-21T05:50:15.831Z,78.80
2018-09-21T05:55:45.262Z,78.50
2018-09-21T06:01:14.598Z,78.10
2018-09-21T06:06:43.953Z,77.50
2018-09-21T06:12:14.385Z,76.80
2018-09-21T06:17:43.800Z,76.40
2018-09-21T06:23:13.286Z,75.60
2018-09-21T06:28:42.880Z,74.90
2018-09-21T06:34:12.321Z,74.10
2018-09-21T06:39:41.805Z,73.50
2018-09-21T06:45:11.324Z,72.70
2018-09-21T06:50:42.789Z,72.00
2018-09-21T06:56:12.240Z,71.40
2018-09-21T07:01:41.726Z,70.50
2018-09-21T07:07:11.065Z,69.90
2018-09-21T07:12:40.483Z,69.60
2018-09-21T07:18:09.877Z,68.80
2018-09-21T07:23:40.331Z,68.20
2018-09-21T07:29:09.757Z,67.90
2018-09-21T07:34:39.068Z,67.20
2018-09-21T07:40:08.409Z,65.30
2018-09-21T07:45:37.670Z,65.60
2018-09-21T07:51:07.128Z,64.40
2018-09-21T07:56:36.323Z,63.00
2018-09-21T08:02:05.524Z,62.30
2018-09-21T08:07:34.714Z,61.50
2018-09-21T08:13:03.947Z,60.90
2018-09-21T08:18:33.467Z,59.40
2018-09-21T08:24:04.138Z,59.30
2018-09-21T08:29:33.363Z,58.00
2018-09-21T08:35:02.683Z,57.20
2018-09-21T08:40:31.899Z,56.90
2018-09-21T08:46:01.151Z,56.10
2018-09-21T08:51:30.437Z,54.70
2018-09-21T08:56:59.692Z,54.50
2018-09-21T09:02:29.039Z,54.40
2018-09-21T09:07:58.397Z,54.10
2018-09-21T09:13:27.623Z,53.90
2018-09-21T09:18:56.876Z,53.00
2018-09-21T09:24:26.231Z,53.30
2018-09-21T09:29:55.701Z,52.90
2018-09-21T09:35:26.031Z,52.40
2018-09-21T09:40:55.247Z,52.80
2018-09-21T09:46:25.452Z,52.60
2018-09-21T09:51:54.760Z,51.70
2018-09-21T09:57:24.208Z,49.70
2018-09-21T10:02:54.552Z,50.00
2018-09-21T10:08:23.786Z,49.50
2018-09-21T10:13:53.338Z,49.40
2018-09-21T10:19:23.177Z,47.60
2018-09-21T10:24:52.411Z,45.50
2018-09-21T10:30:21.671Z,45.20
2018-09-21T10:35:51.717Z,45.30
2018-09-21T10:41:21.011Z,44.60
2018-09-21T10:46:51.320Z,43.30
2018-09-21T10:52:20.584Z,43.30
2018-09-21T10:57:49.897Z,43.20
2018-09-21T11:03:19.269Z,43.60
2018-09-21T11:08:52.378Z,43.30
2018-09-21T11:14:21.800Z,43.30
2018-09-21T11:19:51.043Z,44.30
2018-09-21T11:25:20.352Z,44.50
2018-09-21T11:30:49.651Z,44.70
2018-09-21T11:36:18.895Z,44.60
2018-09-21T11:41:48.154Z,44.30
2018-09-21T11:47:17.777Z,44.10
2018-09-21T11:52:47.571Z,43.40
2018-09-21T11:58:16.925Z,43.30
2018-09-21T12:03:46.511Z,43.90
2018-09-21T12:09:15.792Z,42.40
2018-09-21T12:14:45.312Z,42.10
2018-09-21T12:20:14.864Z,42.50
2018-09-21T12:25:44.763Z,41.00
2018-09-21T12:31:14.552Z,41.50
2018-09-21T12:36:44.075Z,40.70
2018-09-21T12:42:13.673Z,39.60
2018-09-21T12:47:43.101Z,40.50
2018-09-21T12:53:12.589Z,40.00
2018-09-21T12:58:42.364Z,35.80
2018-09-21T13:04:11.922Z,34.60
2018-09-21T13:09:41.427Z,33.60
2018-09-21T13:15:12.688Z,33.20
2018-09-21T13:20:44.296Z,34.00
2018-09-21T13:26:14.964Z,35.10
2018-09-21T13:31:44.709Z,36.00
2018-09-21T13:37:14.318Z,34.10
2018-09-21T13:42:45.027Z,32.50
2018-09-21T13:48:14.556Z,30.00
2018-09-21T13:53:43.932Z,29.20
2018-09-21T13:59:13.457Z,30.50
2018-09-21T14:04:43.002Z,30.50
2018-09-21T14:10:12.620Z,31.00
2018-09-21T14:15:42.103Z,32.50
2018-09-21T14:21:11.553Z,33.00
2018-09-21T14:26:41.116Z,34.10
2018-09-21T14:32:10.856Z,35.30
2018-09-21T14:37:40.584Z,35.40
2018-09-21T14:43:10.238Z,36.20
2018-09-21T14:48:40.954Z,37.80
2018-09-21T14:54:10.787Z,38.50
2018-09-21T14:59:40.744Z,39.00
2018-09-21T15:05:10.453Z,39.60
2018-09-21T15:10:40.685Z,39.90
2018-09-21T15:16:10.527Z,40.30
2018-09-21T15:21:40.346Z,40.50
2018-09-21T15:27:09.951Z,40.60
2018-09-21T15:32:39.413Z,41.20
2018-09-21T15:38:09.192Z,42.00
2018-09-21T15:43:38.767Z,42.60
2018-09-21T15:49:08.068Z,43.20
2018-09-21T15:54:37.420Z,43.50
2018-09-21T16:00:08.059Z,44.10
2018-09-21T16:05:38.523Z,44.20
2018-09-21T16:11:10.312Z,44.60
2018-09-21T16:16:39.857Z,44.90
2018-09-21T16:22:09.653Z,45.40
2018-09-21T16:27:39.222Z,45.60
2018-09-21T16:33:11.886Z,46.00
2018-09-21T16:38:42.160Z,46.30
2018-09-21T16:44:12.617Z,46.80
2018-09-21T16:49:42.094Z,47.00
2018-09-21T16:55:11.507Z,47.40
2018-09-21T17:00:40.880Z,47.70
2018-09-21T17:06:10.454Z,48.30
2018-09-21T17:11:39.968Z,48.50
2018-09-21T17:17:10.432Z,49.40
2018-09-21T17:22:39.950Z,50.00
2018-09-21T17:28:09.382Z,50.40
2018-09-21T17:33:40.894Z,50.30
2018-09-21T17:39:12.535Z,51.00
2018-09-21T17:44:43.089Z,51.70
2018-09-21T17:50:12.579Z,52.30
2018-09-21T17:55:42.071Z,52.20
2018-09-21T18:01:11.850Z,52.20
2018-09-21T18:06:41.299Z,52.90
2018-09-21T18:12:10.936Z,53.30
2018-09-21T18:17:40.671Z,54.10
2018-09-21T18:23:10.260Z,54.70
2018-09-21T18:28:39.815Z,55.20
2018-09-21T18:34:09.432Z,55.60
2018-09-21T18:39:38.930Z,55.60
2018-09-21T18:45:08.520Z,55.80
2018-09-21T18:50:38.061Z,56.00
2018-09-21T18:56:07.395Z,55.80
2018-09-21T19:01:36.636Z,55.90
2018-09-21T19:07:10.264Z,56.50
2018-09-21T19:12:39.705Z,57.40
2018-09-21T19:18:09.201Z,58.00
2018-09-21T19:23:38.776Z,59.60
2018-09-21T19:29:08.306Z,60.70
2018-09-21T19:34:37.882Z,62.40
2018-09-21T19:40:07.180Z,61.80
2018-09-21T19:45:36.606Z,62.60
2018-09-21T19:51:05.857Z,64.20
2018-09-21T19:56:36.182Z,65.00
2018-09-21T20:02:05.429Z,66.00
2018-09-21T20:07:34.741Z,66.80
2018-09-21T20:13:06.108Z,67.80
2018-09-21T20:18:35.446Z,68.00
2018-09-21T20:24:04.852Z,68.60
2018-09-21T20:29:34.548Z,68.30
2018-09-21T20:35:03.941Z,68.30
2018-09-21T20:40:33.306Z,68.10
2018-09-21T20:46:03.040Z,68.20
2018-09-21T20:51:32.576Z,68.70
2018-09-21T20:57:01.843Z,69.00
2018-09-21T21:02:31.100Z,69.60
2018-09-21T21:08:00.288Z,69.70
2018-09-21T21:13:29.600Z,70.00
2018-09-21T21:19:00.959Z,70.00
2018-09-21T21:24:31.264Z,70.20
2018-09-21T21:30:00.482Z,70.40
2018-09-21T21:35:29.761Z,70.50
2018-09-21T21:40:59.306Z,70.70
2018-09-21T21:46:29.733Z,70.70
2018-09-21T21:52:11.327Z,70.70
2018-09-21T21:57:41.765Z,70.90
2018-09-21T22:03:11.154Z,71.10
2018-09-21T22:08:40.483Z,71.70
2018-09-21T22:14:10.799Z,71.90
2018-09-21T22:19:40.123Z,72.30
2018-09-21T22:25:09.984Z,72.30
2018-09-21T22:30:40.356Z,72.80
2018-09-21T22:36:10.183Z,73.00
2018-09-21T22:41:39.880Z,72.90
2018-09-21T22:47:10.418Z,73.10
2018-09-21T22:52:39.846Z,73.40
2018-09-21T22:58:10.186Z,73.60
2018-09-21T23:03:39.535Z,73.90
2018-09-21T23:09:11.464Z,74.00
2018-09-21T23:14:40.865Z,74.30
2018-09-21T23:20:10.203Z,74.80
2018-09-21T23:25:40.635Z,74.80
2018-09-21T23:31:10.487Z,74.80
2018-09-21T23:36:40.820Z,75.10
2018-09-21T23:42:10.281Z,74.90
2018-09-21T23:47:40.455Z,75.00
2018-09-21T23:53:09.894Z,74.80
2018-09-21T23:58:39.308Z,74.90
